Time;durP1;ratioP1;P1;durP2;ratioP2;P2;SDS_P1;SDS_P2;PMS_P1;PMS_P2;Temp;Humidity;BMP_temperature;BMP_pressure;BME280_temperature;BME280_humidity;BME280_pressure;Samples;Min_cycle;Max_cycle;Signal;HPM_P1;HPM_P2
2023/02/07 00:00:46;;;;;;;75.28;41.08;;;-4.70;99.90;;;;;;2086801;28;20430;-73
2023/02/07 00:01:46;;;;;;;75.72;39.90;;;-4.70;99.90;;;;;;2095989;28;20025;-72
2023/02/07 00:02:48;;;;;;;71.60;39.35;;;-4.70;99.90;;;;;;2089506;28;20033;-71
2023/02/07 00:03:49;;;;;;;71.55;39.70;;;-4.70;99.90;;;;;;2089439;28;20037;-71
2023/02/07 00:04:50;;;;;;;71.22;39.22;;;-4.70;99.90;;;;;;2095691;28;20119;-72
2023/02/07 00:05:50;;;;;;;72.20;40.13;;;-4.70;99.90;;;;;;2086605;28;20048;-72
2023/02/07 00:06:51;;;;;;;71.07;39.90;;;-4.70;99.90;;;;;;2091658;28;20032;-72
2023/02/07 00:07:51;;;;;;;69.60;39.42;;;-4.70;99.90;;;;;;2098705;28;20031;-73
2023/02/07 00:08:52;;;;;;;70.03;38.65;;;-4.70;99.90;;;;;;2095000;28;20037;-72
2023/02/07 00:09:53;;;;;;;72.03;40.35;;;-4.70;99.90;;;;;;2091326;28;20503;-72
2023/02/07 00:10:53;;;;;;;73.35;39.65;;;-4.60;99.90;;;;;;2087286;28;20040;-72
2023/02/07 00:11:54;;;;;;;73.10;40.17;;;-4.70;99.90;;;;;;2085127;28;20025;-72
2023/02/07 00:12:54;;;;;;;71.68;40.00;;;-4.70;99.90;;;;;;2085172;28;20092;-72
2023/02/07 00:13:57;;;;;;;69.93;39.10;;;-4.70;99.90;;;;;;2084511;28;20033;-72
2023/02/07 00:14:58;;;;;;;70.78;38.78;;;-4.70;99.90;;;;;;2097144;28;20122;-72
2023/02/07 00:15:59;;;;;;;66.97;37.55;;;-4.60;99.90;;;;;;2098260;28;20027;-72
2023/02/07 00:16:59;;;;;;;66.70;37.67;;;-4.70;99.90;;;;;;2095496;28;20039;-72
2023/02/07 00:18:00;;;;;;;67.93;38.60;;;-4.70;99.90;;;;;;2100320;28;20039;-72
2023/02/07 00:19:00;;;;;;;68.32;38.55;;;-4.70;99.90;;;;;;2095953;28;20021;-72
2023/02/07 00:20:01;;;;;;;68.85;37.90;;;-4.70;99.90;;;;;;2097999;28;20025;-73
2023/02/07 00:21:07;;;;;;;66.95;37.55;;;-4.70;99.90;;;;;;2096891;28;20032;-72
2023/02/07 00:22:07;;;;;;;67.03;38.33;;;-4.70;99.90;;;;;;2099397;28;20035;-72
2023/02/07 00:23:08;;;;;;;73.10;38.55;;;-4.70;99.90;;;;;;2094280;28;20036;-72
2023/02/07 00:24:08;;;;;;;65.82;37.30;;;-4.70;99.90;;;;;;2098760;28;20028;-71
2023/02/07 00:25:10;;;;;;;70.47;39.05;;;-4.70;99.90;;;;;;2087682;28;20032;-72
2023/02/07 00:26:12;;;;;;;70.65;39.42;;;-4.70;99.90;;;;;;2089378;28;20043;-72
2023/02/07 00:27:15;;;;;;;70.65;38.58;;;-4.80;99.90;;;;;;2086450;28;20696;-73
2023/02/07 00:28:16;;;;;;;72.90;40.83;;;-4.70;99.90;;;;;;2084999;28;20025;-71
2023/02/07 00:29:19;;;;;;;69.22;39.75;;;-4.70;99.90;;;;;;2088374;28;20082;-72
2023/02/07 00:30:20;;;;;;;74.88;41.47;;;-4.70;99.90;;;;;;2083541;28;20040;-71
2023/02/07 00:31:25;;;;;;;75.32;41.50;;;-4.80;99.90;;;;;;2097757;28;20481;-72
2023/02/07 00:32:33;;;;;;;73.40;40.17;;;-4.80;99.90;;;;;;2098504;28;20652;-71
2023/02/07 00:33:36;;;;;;;75.72;41.13;;;-4.80;99.90;;;;;;2094242;28;20085;-71
2023/02/07 00:34:37;;;;;;;72.68;40.55;;;-4.80;99.90;;;;;;2082992;28;20029;-71
2023/02/07 00:35:38;;;;;;;74.75;41.17;;;-4.80;99.90;;;;;;2087908;28;20446;-72
2023/02/07 00:36:40;;;;;;;77.32;41.63;;;-4.80;99.90;;;;;;2091160;28;20032;-72
2023/02/07 00:37:41;;;;;;;74.60;42.15;;;-4.80;99.90;;;;;;2093237;28;20558;-72
2023/02/07 00:38:42;;;;;;;76.10;41.75;;;-4.80;99.90;;;;;;2079127;28;20029;-72
2023/02/07 00:39:44;;;;;;;75.28;41.72;;;-4.90;99.90;;;;;;2083194;28;20669;-72
2023/02/07 00:40:44;;;;;;;77.75;42.63;;;-4.90;99.90;;;;;;2091233;28;20073;-72
2023/02/07 00:41:45;;;;;;;78.68;42.58;;;-4.90;99.90;;;;;;2092604;28;20033;-73
2023/02/07 00:42:46;;;;;;;76.35;42.42;;;-4.90;99.90;;;;;;2084685;28;20025;-72
2023/02/07 00:43:46;;;;;;;78.70;43.50;;;-4.90;99.90;;;;;;2089585;28;20039;-72
2023/02/07 00:44:47;;;;;;;77.88;44.25;;;-4.90;99.90;;;;;;2088910;28;20028;-73
2023/02/07 00:45:47;;;;;;;75.05;41.88;;;-4.90;99.90;;;;;;2082770;28;20040;-73
2023/02/07 00:46:48;;;;;;;77.70;41.53;;;-4.90;99.90;;;;;;2089008;28;20111;-72
2023/02/07 00:47:48;;;;;;;76.28;41.22;;;-4.90;99.90;;;;;;2095048;28;20102;-72
2023/02/07 00:48:49;;;;;;;70.30;39.78;;;-4.90;99.90;;;;;;2088271;28;20032;-73
2023/02/07 00:49:50;;;;;;;72.88;39.75;;;-4.90;99.90;;;;;;2095636;28;20035;-72
2023/02/07 00:50:50;;;;;;;71.82;40.05;;;-4.90;99.90;;;;;;2088914;28;20098;-72
2023/02/07 00:51:51;;;;;;;75.15;40.20;;;-5.00;99.90;;;;;;2082148;28;20072;-73
2023/02/07 00:52:52;;;;;;;77.88;42.55;;;-4.90;99.90;;;;;;2081036;28;20507;-73
2023/02/07 00:53:53;;;;;;;78.22;41.20;;;-5.00;99.90;;;;;;2083407;28;20028;-73
2023/02/07 00:54:54;;;;;;;79.32;42.03;;;-5.00;99.90;;;;;;2087571;28;20399;-72
2023/02/07 00:55:54;;;;;;;77.20;40.65;;;-5.00;99.90;;;;;;2098348;28;20028;-73
2023/02/07 00:56:55;;;;;;;72.55;39.42;;;-5.00;99.90;;;;;;2085938;28;20033;-72
2023/02/07 00:57:55;;;;;;;70.78;38.83;;;-5.00;99.90;;;;;;2078827;28;22368;-72
2023/02/07 00:58:56;;;;;;;71.80;38.70;;;-5.00;99.90;;;;;;2086468;28;20689;-72
2023/02/07 00:59:57;;;;;;;74.68;40.85;;;-5.00;99.90;;;;;;2078327;28;20108;-73
2023/02/07 01:00:58;;;;;;;73.40;39.10;;;-5.10;99.90;;;;;;2090734;28;20017;-73
2023/02/07 01:01:59;;;;;;;67.85;38.15;;;-5.10;99.90;;;;;;2093472;28;20019;-72
2023/02/07 01:03:00;;;;;;;69.43;38.53;;;-5.00;99.90;;;;;;2094262;28;20653;-72
2023/02/07 01:04:00;;;;;;;70.18;38.05;;;-5.00;99.90;;;;;;2090701;28;20021;-72
2023/02/07 01:05:01;;;;;;;71.20;39.63;;;-5.10;99.90;;;;;;2084459;28;20067;-73
2023/02/07 01:06:02;;;;;;;72.15;39.85;;;-5.10;99.90;;;;;;2088406;28;20904;-72
2023/02/07 01:07:03;;;;;;;73.55;39.83;;;-5.10;99.90;;;;;;2091369;28;20092;-72
2023/02/07 01:08:04;;;;;;;73.85;39.58;;;-5.10;99.90;;;;;;2084646;28;20033;-72
2023/02/07 01:09:05;;;;;;;74.45;40.20;;;-5.10;99.90;;;;;;2089361;28;20497;-72
2023/02/07 01:10:06;;;;;;;73.15;39.40;;;-5.10;99.90;;;;;;2096217;28;20560;-72
2023/02/07 01:11:10;;;;;;;72.78;39.72;;;-5.10;99.90;;;;;;2089914;28;20064;-72
2023/02/07 01:12:12;;;;;;;70.22;38.80;;;-5.10;99.90;;;;;;2089332;28;20039;-72
2023/02/07 01:13:14;;;;;;;73.25;40.15;;;-5.10;99.90;;;;;;2097061;28;20024;-71
2023/02/07 01:14:14;;;;;;;77.53;40.28;;;-5.10;99.90;;;;;;2096396;28;20147;-72
2023/02/07 01:15:15;;;;;;;71.40;39.25;;;-5.10;99.90;;;;;;2087785;28;20682;-71
2023/02/07 01:16:18;;;;;;;73.18;39.45;;;-5.10;99.90;;;;;;2092566;28;20036;-71
2023/02/07 01:17:18;;;;;;;71.47;39.95;;;-5.10;99.90;;;;;;2087939;28;20036;-71
2023/02/07 01:18:19;;;;;;;73.80;39.90;;;-5.10;99.90;;;;;;2086001;28;20032;-71
2023/02/07 01:19:19;;;;;;;70.40;39.45;;;-5.10;99.90;;;;;;2095288;28;20028;-72
2023/02/07 01:20:20;;;;;;;74.22;39.42;;;-5.20;99.90;;;;;;2097391;28;20702;-72
2023/02/07 01:21:24;;;;;;;72.05;39.53;;;-5.10;99.90;;;;;;2088078;28;20664;-72
2023/02/07 01:22:26;;;;;;;68.82;38.63;;;-5.20;99.90;;;;;;2079483;28;20035;-72
2023/02/07 01:23:26;;;;;;;69.30;37.92;;;-5.10;99.90;;;;;;2079200;28;20029;-72
2023/02/07 01:24:27;;;;;;;70.55;38.35;;;-5.10;99.90;;;;;;2080374;28;20222;-72
2023/02/07 01:25:27;;;;;;;70.55;38.75;;;-5.10;99.90;;;;;;2083926;28;20043;-72
2023/02/07 01:26:29;;;;;;;68.68;37.67;;;-5.20;99.90;;;;;;2082166;28;20033;-72
2023/02/07 01:27:29;;;;;;;68.72;37.10;;;-5.10;99.90;;;;;;2086350;28;20032;-71
2023/02/07 01:28:30;;;;;;;67.90;37.55;;;-5.10;99.90;;;;;;2086597;28;20033;-72
2023/02/07 01:29:30;;;;;;;68.68;38.75;;;-5.10;99.90;;;;;;2082571;28;20029;-72
2023/02/07 01:30:31;;;;;;;69.43;37.38;;;-5.10;99.90;;;;;;2084455;28;20060;-72
2023/02/07 01:31:32;;;;;;;70.93;38.10;;;-5.20;99.90;;;;;;2082618;28;20032;-72
2023/02/07 01:32:33;;;;;;;68.60;38.15;;;-5.20;99.90;;;;;;2083930;28;20036;-72
2023/02/07 01:33:34;;;;;;;66.32;37.08;;;-5.20;99.90;;;;;;2083445;28;20044;-72
2023/02/07 01:34:35;;;;;;;66.28;36.65;;;-5.20;99.90;;;;;;2084622;28;20090;-71
2023/02/07 01:35:38;;;;;;;69.03;37.70;;;-5.20;99.90;;;;;;2083533;28;20447;-72
2023/02/07 01:36:39;;;;;;;70.95;39.00;;;-5.30;99.90;;;;;;2086131;28;20164;-72
2023/02/07 01:37:39;;;;;;;70.57;38.90;;;-5.20;99.90;;;;;;2090714;28;20039;-72
2023/02/07 01:38:41;;;;;;;70.53;39.03;;;-5.30;99.90;;;;;;2089047;28;20035;-71
2023/02/07 01:39:42;;;;;;;71.13;38.10;;;-5.30;99.90;;;;;;2079456;28;20200;-72
2023/02/07 01:40:42;;;;;;;64.90;36.78;;;-5.30;99.90;;;;;;2088456;28;20095;-70
2023/02/07 01:41:43;;;;;;;67.38;38.05;;;-5.30;99.90;;;;;;2082454;28;20478;-72
2023/02/07 01:42:44;;;;;;;67.60;37.65;;;-5.30;99.90;;;;;;2074187;28;20822;-71
2023/02/07 01:44:00;;;;;;;68.63;38.17;;;-5.30;99.90;;;;;;2086144;28;20037;-71
2023/02/07 01:45:24;;;;;;;71.53;37.55;;;-5.30;99.90;;;;;;2092287;28;20032;-72
2023/02/07 01:46:26;;;;;;;68.43;36.22;;;-5.30;99.90;;;;;;2092354;28;20093;-71
2023/02/07 01:47:28;;;;;;;65.35;35.70;;;-5.30;99.90;;;;;;2090475;28;20038;-71
2023/02/07 01:48:33;;;;;;;68.03;35.92;;;-5.30;99.90;;;;;;2087184;28;20144;-72
2023/02/07 01:49:34;;;;;;;64.95;36.05;;;-5.30;99.90;;;;;;2091037;28;20036;-72
2023/02/07 01:50:36;;;;;;;66.22;35.58;;;-5.30;99.90;;;;;;2092435;28;20012;-72
2023/02/07 01:51:41;;;;;;;66.20;35.80;;;-5.30;99.90;;;;;;2087482;28;20052;-71
2023/02/07 01:52:42;;;;;;;69.50;36.65;;;-5.30;99.90;;;;;;2092883;28;20040;-72
2023/02/07 01:53:42;;;;;;;65.72;35.72;;;-5.30;99.90;;;;;;2094911;28;20050;-72
2023/02/07 01:54:47;;;;;;;65.85;36.83;;;-5.30;99.90;;;;;;2099662;28;20085;-73
2023/02/07 01:55:50;;;;;;;70.25;37.72;;;-5.40;99.90;;;;;;2085750;28;20025;-72
2023/02/07 01:56:55;;;;;;;66.60;36.67;;;-5.40;99.90;;;;;;2086302;28;20033;-72
2023/02/07 01:57:57;;;;;;;69.80;37.28;;;-5.40;99.90;;;;;;2078650;28;20018;-72
2023/02/07 01:59:02;;;;;;;66.03;36.22;;;-5.40;99.90;;;;;;2080777;28;20025;-72
2023/02/07 02:00:03;;;;;;;66.47;36.28;;;-5.40;99.90;;;;;;2082475;28;20622;-72
2023/02/07 02:01:21;;;;;;;67.15;37.38;;;-5.40;99.90;;;;;;2087433;28;20094;-73
2023/02/07 02:02:23;;;;;;;69.57;37.45;;;-5.40;99.90;;;;;;2090394;28;20025;-73
2023/02/07 02:03:24;;;;;;;69.05;37.63;;;-5.40;99.90;;;;;;2092636;28;20043;-72
2023/02/07 02:04:24;;;;;;;71.88;37.72;;;-5.40;99.90;;;;;;2098934;28;20117;-73
2023/02/07 02:05:27;;;;;;;70.28;37.17;;;-5.40;99.90;;;;;;2090316;28;20028;-72
2023/02/07 02:06:30;;;;;;;67.97;38.20;;;-5.40;99.90;;;;;;2082305;28;20091;-72
2023/02/07 02:07:32;;;;;;;70.82;37.60;;;-5.40;99.90;;;;;;2090635;28;20051;-72
2023/02/07 02:08:33;;;;;;;70.43;38.15;;;-5.40;99.90;;;;;;2088107;28;20735;-72
2023/02/07 02:09:34;;;;;;;71.97;38.03;;;-5.40;99.90;;;;;;2083171;28;20581;-72
2023/02/07 02:10:54;;;;;;;72.43;37.92;;;-5.40;99.90;;;;;;2100104;28;20057;-73
2023/02/07 02:12:24;;;;;;;67.03;37.13;;;-5.40;99.90;;;;;;2091064;28;20029;-72
2023/02/07 02:13:29;;;;;;;70.35;38.38;;;-5.40;99.90;;;;;;2091242;28;20395;-72
2023/02/07 02:15:10;;;;;;;68.10;37.13;;;-5.40;99.90;;;;;;2091569;28;20047;-72
2023/02/07 02:16:31;;;;;;;66.70;35.97;;;-5.40;99.90;;;;;;2079603;28;20640;-71
2023/02/07 02:18:02;;;;;;;70.55;36.80;;;-5.40;99.90;;;;;;2087701;28;20037;-71
2023/02/07 02:19:23;;;;;;;69.10;35.45;;;-5.40;99.90;;;;;;2086364;28;20063;-71
2023/02/07 02:21:10;;;;;;;70.13;36.95;;;-5.40;99.90;;;;;;2090947;28;20558;-72
2023/02/07 02:22:38;;;;;;;71.65;36.33;;;-5.40;99.90;;;;;;2097119;28;20035;-72
2023/02/07 02:24:02;;;;;;;69.20;36.35;;;-5.40;99.90;;;;;;2088781;28;20074;-71
2023/02/07 02:25:12;;;;;;;71.90;36.63;;;-5.40;99.90;;;;;;2075416;28;20168;-71
2023/02/07 02:26:24;;;;;;;70.07;36.53;;;-5.50;99.90;;;;;;2076830;28;20026;-71
2023/02/07 02:27:44;;;;;;;71.40;37.22;;;-5.50;99.90;;;;;;2084124;28;20024;-71
2023/02/07 02:29:14;;;;;;;72.10;37.25;;;-5.50;99.90;;;;;;2086021;28;20032;-72
2023/02/07 02:30:20;;;;;;;70.47;36.40;;;-5.50;99.90;;;;;;2094405;28;20032;-71
2023/02/07 02:31:47;;;;;;;73.97;37.05;;;-5.50;99.90;;;;;;2091222;28;20043;-71
2023/02/07 02:33:06;;;;;;;67.32;34.85;;;-5.50;99.90;;;;;;2075736;28;20040;-72
2023/02/07 02:34:18;;;;;;;72.10;37.15;;;-5.50;99.90;;;;;;2089579;28;20508;-71
2023/02/07 02:35:49;;;;;;;65.70;35.13;;;-5.50;99.90;;;;;;2095896;28;20028;-71
2023/02/07 02:37:18;;;;;;;65.28;34.33;;;-5.50;99.90;;;;;;2082906;28;20126;-71
2023/02/07 02:38:52;;;;;;;68.65;36.35;;;-5.50;99.90;;;;;;2092691;28;20410;-72
2023/02/07 02:40:20;;;;;;;67.28;36.10;;;-5.60;99.90;;;;;;2086669;28;20051;-72
2023/02/07 02:41:25;;;;;;;67.40;36.05;;;-5.60;99.90;;;;;;2078288;28;20163;-72
2023/02/07 02:42:46;;;;;;;70.35;36.13;;;-5.60;99.90;;;;;;2090913;28;20086;-73
2023/02/07 02:44:19;;;;;;;67.82;36.50;;;-5.60;99.90;;;;;;2093132;28;20089;-72
2023/02/07 02:45:27;;;;;;;70.57;36.08;;;-5.70;99.90;;;;;;2082163;28;20123;-72
2023/02/07 02:46:35;;;;;;;68.45;35.55;;;-5.70;99.90;;;;;;2089950;28;20033;-72
2023/02/07 02:47:38;;;;;;;71.43;36.83;;;-5.70;99.90;;;;;;2083343;28;20111;-73
2023/02/07 02:48:42;;;;;;;66.35;35.17;;;-5.70;99.90;;;;;;2079551;28;20060;-72
2023/02/07 02:49:44;;;;;;;62.15;34.92;;;-5.70;99.90;;;;;;2090902;28;20407;-72
2023/02/07 02:50:46;;;;;;;66.97;35.65;;;-5.70;99.90;;;;;;2090234;28;20702;-72
2023/02/07 02:51:51;;;;;;;67.80;35.15;;;-5.70;99.90;;;;;;2082381;28;20111;-72
2023/02/07 02:52:52;;;;;;;66.50;34.70;;;-5.70;99.90;;;;;;2089922;28;20045;-72
2023/02/07 02:53:59;;;;;;;67.45;34.17;;;-5.70;99.90;;;;;;2085598;28;20025;-72
2023/02/07 02:55:08;;;;;;;63.03;33.25;;;-5.80;99.90;;;;;;2090341;28;20036;-72
2023/02/07 02:56:59;;;;;;;64.47;33.72;;;-5.80;99.90;;;;;;2082089;28;20823;-72
2023/02/07 02:58:08;;;;;;;65.57;33.05;;;-5.80;99.90;;;;;;2069505;28;20080;-72
2023/02/07 02:59:36;;;;;;;68.10;33.95;;;-5.80;99.90;;;;;;2089368;28;20605;-72
2023/02/07 03:01:00;;;;;;;65.82;33.03;;;-5.80;99.90;;;;;;2084774;28;20132;-72
2023/02/07 03:02:38;;;;;;;65.38;32.75;;;-5.80;99.90;;;;;;2088681;28;20028;-72
2023/02/07 03:03:48;;;;;;;67.55;33.47;;;-5.80;99.90;;;;;;2047510;28;20037;-72
2023/02/07 03:05:05;;;;;;;65.45;32.05;;;-5.80;99.90;;;;;;2044364;28;20038;-76
2023/02/07 03:06:25;;;;;;;61.03;31.58;;;-5.80;99.90;;;;;;2084327;28;20129;-75
2023/02/07 03:07:43;;;;;;;61.60;30.35;;;-5.80;99.90;;;;;;2075080;28;20033;-74
2023/02/07 03:09:22;;;;;;;60.53;31.35;;;-5.80;99.90;;;;;;2073855;28;20044;-74
2023/02/07 03:10:45;;;;;;;61.92;31.20;;;-5.80;99.90;;;;;;2078075;28;20040;-72
2023/02/07 03:12:22;;;;;;;60.47;31.23;;;-5.80;99.90;;;;;;2087705;28;20067;-71
2023/02/07 03:13:31;;;;;;;57.17;30.02;;;-5.90;99.90;;;;;;2073525;28;20489;-71
2023/02/07 03:14:46;;;;;;;61.33;31.58;;;-5.80;99.90;;;;;;2079864;28;20032;-72
2023/02/07 03:15:58;;;;;;;59.78;30.90;;;-5.90;99.90;;;;;;2086489;28;20032;-71
2023/02/07 03:17:13;;;;;;;60.53;30.65;;;-5.90;99.90;;;;;;2071484;28;20033;-72
2023/02/07 03:18:33;;;;;;;59.45;30.33;;;-5.90;99.90;;;;;;2073871;28;20030;-71
2023/02/07 03:19:40;;;;;;;62.05;30.88;;;-5.80;99.90;;;;;;2082278;28;20851;-72
2023/02/07 03:21:13;;;;;;;62.70;32.50;;;-5.80;99.90;;;;;;2084516;28;20407;-72
2023/02/07 03:22:19;;;;;;;60.63;30.67;;;-5.90;99.90;;;;;;2085250;28;20017;-72
2023/02/07 03:23:23;;;;;;;63.22;31.88;;;-5.90;99.90;;;;;;2090081;28;20024;-73
2023/02/07 03:24:30;;;;;;;57.90;31.02;;;-5.90;99.90;;;;;;2090017;28;20135;-72
2023/02/07 03:25:31;;;;;;;60.13;32.00;;;-5.90;99.90;;;;;;2084183;28;20107;-71
2023/02/07 03:26:35;;;;;;;60.70;31.90;;;-5.90;99.90;;;;;;2074424;28;20029;-72
2023/02/07 03:27:37;;;;;;;59.75;31.38;;;-5.90;99.90;;;;;;2084058;28;20029;-71
2023/02/07 03:28:39;;;;;;;62.15;32.17;;;-5.90;99.90;;;;;;2088412;28;20045;-72
2023/02/07 03:29:44;;;;;;;59.40;31.45;;;-5.90;99.90;;;;;;2086433;28;20036;-73
2023/02/07 03:30:49;;;;;;;58.83;31.67;;;-5.90;99.90;;;;;;2083496;28;20036;-71
2023/02/07 03:31:53;;;;;;;60.95;31.25;;;-5.90;99.90;;;;;;2089243;28;20176;-71
2023/02/07 03:32:58;;;;;;;56.42;30.40;;;-5.90;99.90;;;;;;2087378;28;20028;-71
2023/02/07 03:34:07;;;;;;;60.42;31.70;;;-5.90;99.90;;;;;;2087777;28;20745;-73
2023/02/07 03:35:23;;;;;;;62.00;32.63;;;-5.90;99.90;;;;;;2086153;28;20029;-71
2023/02/07 03:36:32;;;;;;;61.17;31.80;;;-5.90;99.90;;;;;;2079771;28;20032;-72
2023/02/07 03:37:41;;;;;;;64.85;31.63;;;-5.90;99.90;;;;;;2087638;28;20116;-72
2023/02/07 03:38:41;;;;;;;54.33;30.98;;;-5.90;99.90;;;;;;2081754;28;20033;-70
2023/02/07 03:39:42;;;;;;;58.33;30.60;;;-6.00;99.90;;;;;;2083677;28;20484;-71
2023/02/07 03:40:46;;;;;;;56.85;30.88;;;-6.00;99.90;;;;;;2089424;28;20380;-71
2023/02/07 03:41:55;;;;;;;61.53;31.60;;;-6.00;99.90;;;;;;2082025;28;20047;-72
2023/02/07 03:43:02;;;;;;;56.72;31.25;;;-6.00;99.90;;;;;;2090007;28;20696;-72
2023/02/07 03:44:05;;;;;;;57.50;31.23;;;-6.00;99.90;;;;;;2082341;28;20228;-72
2023/02/07 03:45:11;;;;;;;59.85;31.20;;;-6.00;99.90;;;;;;2085187;28;20037;-72
2023/02/07 03:46:12;;;;;;;58.17;31.23;;;-6.00;99.90;;;;;;2089915;28;20119;-71
2023/02/07 03:47:16;;;;;;;58.65;31.52;;;-6.10;99.90;;;;;;2081800;28;20048;-71
2023/02/07 03:48:17;;;;;;;60.65;31.67;;;-6.10;99.90;;;;;;2083106;28;20072;-71
2023/02/07 03:49:18;;;;;;;63.15;32.65;;;-6.00;99.90;;;;;;2087805;28;20544;-71
2023/02/07 03:50:18;;;;;;;58.42;31.83;;;-6.10;99.90;;;;;;2088300;28;20029;-71
2023/02/07 03:51:19;;;;;;;61.42;31.40;;;-6.00;99.90;;;;;;2096935;28;20028;-70
2023/02/07 03:52:20;;;;;;;57.92;32.00;;;-6.00;99.90;;;;;;2099754;28;20550;-71
2023/02/07 03:53:20;;;;;;;59.78;31.67;;;-6.00;99.90;;;;;;2091357;28;20040;-73
2023/02/07 03:54:21;;;;;;;60.53;31.23;;;-6.00;99.90;;;;;;2089554;28;20025;-73
2023/02/07 03:55:21;;;;;;;60.25;32.35;;;-6.00;99.90;;;;;;2087477;28;20031;-73
2023/02/07 03:56:22;;;;;;;57.90;30.98;;;-6.10;99.90;;;;;;2087701;28;20133;-72
2023/02/07 03:57:22;;;;;;;65.45;32.85;;;-6.10;99.90;;;;;;2087242;28;20040;-73
2023/02/07 03:58:23;;;;;;;59.05;31.48;;;-6.10;99.90;;;;;;2091489;28;20538;-73
2023/02/07 03:59:23;;;;;;;60.42;31.88;;;-6.10;99.90;;;;;;2083230;28;20098;-73
2023/02/07 04:00:24;;;;;;;54.55;30.25;;;-6.10;99.90;;;;;;2096400;28;20081;-73
2023/02/07 04:01:25;;;;;;;62.97;32.60;;;-6.10;99.90;;;;;;2089030;28;20020;-74
2023/02/07 04:02:25;;;;;;;60.97;31.70;;;-6.10;99.90;;;;;;2090649;28;20032;-73
2023/02/07 04:03:26;;;;;;;57.70;31.23;;;-6.10;99.90;;;;;;2086879;28;20087;-73
2023/02/07 04:04:27;;;;;;;60.30;31.38;;;-6.10;99.90;;;;;;2092080;28;20037;-73
2023/02/07 04:05:27;;;;;;;61.10;32.20;;;-6.10;99.90;;;;;;2093616;28;20094;-74
2023/02/07 04:06:28;;;;;;;60.78;31.52;;;-6.10;99.90;;;;;;2091451;28;20127;-73
2023/02/07 04:07:29;;;;;;;55.65;30.02;;;-6.10;99.90;;;;;;2091558;28;20086;-74
2023/02/07 04:08:31;;;;;;;56.28;29.90;;;-6.10;99.90;;;;;;2091092;28;20565;-74
2023/02/07 04:09:31;;;;;;;55.65;29.88;;;-6.10;99.90;;;;;;2088251;28;20036;-74
2023/02/07 04:10:32;;;;;;;56.17;30.88;;;-6.00;99.90;;;;;;2089029;28;20731;-73
2023/02/07 04:11:32;;;;;;;57.30;31.05;;;-6.10;99.90;;;;;;2079581;28;20539;-74
2023/02/07 04:12:33;;;;;;;58.33;31.35;;;-6.10;99.90;;;;;;2077528;28;20064;-74
2023/02/07 04:13:33;;;;;;;61.92;32.45;;;-6.10;99.90;;;;;;2091446;28;20009;-73
2023/02/07 04:14:34;;;;;;;61.85;31.27;;;-6.10;99.90;;;;;;2093236;28;20657;-73
2023/02/07 04:15:34;;;;;;;58.95;31.50;;;-6.10;99.90;;;;;;2092805;28;20029;-73
2023/02/07 04:16:35;;;;;;;62.08;31.48;;;-6.10;99.90;;;;;;2091916;28;20033;-73
2023/02/07 04:17:36;;;;;;;58.65;30.00;;;-6.10;99.90;;;;;;2087260;28;20039;-73
2023/02/07 04:18:36;;;;;;;57.63;31.00;;;-6.10;99.90;;;;;;2087110;28;20037;-73
2023/02/07 04:19:37;;;;;;;56.47;31.15;;;-6.10;99.90;;;;;;2089648;28;20025;-73
2023/02/07 04:20:37;;;;;;;59.60;32.00;;;-6.10;99.90;;;;;;2089758;28;20163;-73
2023/02/07 04:21:38;;;;;;;60.20;31.75;;;-6.10;99.90;;;;;;2087784;28;20027;-75
2023/02/07 04:22:39;;;;;;;60.05;31.33;;;-6.20;99.90;;;;;;2089403;28;20036;-74
2023/02/07 04:23:39;;;;;;;59.30;30.55;;;-6.20;99.90;;;;;;2083818;28;20036;-74
2023/02/07 04:24:40;;;;;;;61.80;31.98;;;-6.20;99.90;;;;;;2083504;28;20033;-74
2023/02/07 04:25:40;;;;;;;60.72;31.45;;;-6.20;99.90;;;;;;2086594;28;20041;-74
2023/02/07 04:26:41;;;;;;;61.00;31.48;;;-6.20;99.90;;;;;;2087702;28;20075;-74
2023/02/07 04:27:41;;;;;;;59.00;32.60;;;-6.20;99.90;;;;;;2088848;28;20037;-74
2023/02/07 04:28:42;;;;;;;64.15;32.97;;;-6.20;99.90;;;;;;2084403;28;20029;-74
2023/02/07 04:29:43;;;;;;;59.60;31.88;;;-6.20;99.90;;;;;;2086792;28;20035;-74
2023/02/07 04:30:43;;;;;;;61.65;33.03;;;-6.20;99.90;;;;;;2087129;28;20029;-74
2023/02/07 04:31:44;;;;;;;57.90;31.23;;;-6.20;99.90;;;;;;2089843;28;20029;-74
2023/02/07 04:32:44;;;;;;;62.88;33.13;;;-6.20;99.90;;;;;;2088696;28;20565;-74
2023/02/07 04:33:46;;;;;;;57.72;30.40;;;-6.30;99.90;;;;;;2093640;28;20089;-74
2023/02/07 04:34:46;;;;;;;57.90;32.05;;;-6.20;99.90;;;;;;2082805;28;20037;-75
2023/02/07 04:35:58;;;;;;;63.60;32.97;;;-6.20;99.90;;;;;;2082846;28;20036;-74
2023/02/07 04:36:59;;;;;;;66.78;32.92;;;-6.20;99.90;;;;;;2090112;28;20608;-73
2023/02/07 04:37:59;;;;;;;62.83;31.67;;;-6.30;99.90;;;;;;2086989;28;20187;-73
2023/02/07 04:39:00;;;;;;;58.97;30.48;;;-6.30;99.90;;;;;;2089939;28;20025;-73
2023/02/07 04:40:01;;;;;;;57.90;30.80;;;-6.30;99.90;;;;;;2090589;28;20041;-73
2023/02/07 04:41:04;;;;;;;60.30;31.38;;;-6.30;99.90;;;;;;2073310;28;20083;-74
2023/02/07 04:42:06;;;;;;;57.97;30.38;;;-6.30;99.90;;;;;;2079884;28;20079;-75
2023/02/07 04:43:06;;;;;;;60.20;30.30;;;-6.30;99.90;;;;;;2089795;28;20602;-74
2023/02/07 04:44:07;;;;;;;57.75;31.15;;;-6.30;99.90;;;;;;2089611;28;20029;-74
2023/02/07 04:45:08;;;;;;;58.17;30.27;;;-6.30;99.90;;;;;;2086666;28;20056;-74
2023/02/07 04:46:11;;;;;;;58.85;30.10;;;-6.30;99.90;;;;;;2082786;28;20037;-72
2023/02/07 04:47:12;;;;;;;59.88;30.70;;;-6.30;99.90;;;;;;2082965;28;20039;-75
2023/02/07 04:48:12;;;;;;;63.33;32.50;;;-6.30;99.90;;;;;;2086801;28;20566;-73
2023/02/07 04:49:13;;;;;;;65.47;32.50;;;-6.30;99.90;;;;;;2088595;28;20025;-73
2023/02/07 04:50:13;;;;;;;66.32;32.53;;;-6.30;99.90;;;;;;2088735;28;20510;-73
2023/02/07 04:51:14;;;;;;;65.03;33.13;;;-6.30;99.90;;;;;;2088212;28;20029;-75
2023/02/07 04:52:15;;;;;;;57.08;30.42;;;-6.30;99.90;;;;;;2089759;28;20089;-73
2023/02/07 04:53:15;;;;;;;60.38;30.58;;;-6.30;99.90;;;;;;2091054;28;20119;-74
2023/02/07 04:54:16;;;;;;;58.45;30.23;;;-6.30;99.90;;;;;;2086997;28;20033;-74
2023/02/07 04:55:16;;;;;;;64.47;31.40;;;-6.30;99.90;;;;;;2077928;28;20037;-73
2023/02/07 04:56:17;;;;;;;63.35;30.58;;;-6.30;99.90;;;;;;2086111;28;20039;-74
2023/02/07 04:57:18;;;;;;;64.45;31.08;;;-6.30;99.90;;;;;;2089220;28;20047;-74
2023/02/07 04:58:19;;;;;;;67.60;32.00;;;-6.30;99.90;;;;;;2097134;28;20062;-74
2023/02/07 04:59:20;;;;;;;67.50;32.60;;;-6.30;99.90;;;;;;2095891;28;20591;-73
2023/02/07 05:00:20;;;;;;;70.22;33.25;;;-6.30;99.90;;;;;;2088626;28;20059;-73
2023/02/07 05:01:21;;;;;;;73.35;34.22;;;-6.30;99.90;;;;;;2077444;28;20144;-73
2023/02/07 05:02:21;;;;;;;72.47;33.85;;;-6.30;99.90;;;;;;2077182;28;20052;-75
2023/02/07 05:03:22;;;;;;;70.22;33.42;;;-6.30;99.90;;;;;;2090479;28;20525;-74
2023/02/07 05:04:23;;;;;;;69.45;33.03;;;-6.30;99.90;;;;;;2084329;28;20037;-74
2023/02/07 05:05:23;;;;;;;70.28;32.50;;;-6.30;99.90;;;;;;2084552;28;20036;-74
2023/02/07 05:06:24;;;;;;;69.25;32.05;;;-6.30;99.90;;;;;;2094928;28;20503;-74
2023/02/07 05:07:24;;;;;;;73.55;34.70;;;-6.30;99.90;;;;;;2091512;28;20036;-74
2023/02/07 05:08:25;;;;;;;77.50;35.72;;;-6.20;99.90;;;;;;2090969;28;20032;-74
2023/02/07 05:09:26;;;;;;;76.13;34.55;;;-6.10;99.90;;;;;;2089785;28;20530;-74
2023/02/07 05:10:26;;;;;;;80.50;35.58;;;-6.00;99.90;;;;;;2089240;28;20561;-75
2023/02/07 05:11:27;;;;;;;77.93;35.15;;;-6.00;99.90;;;;;;2090720;28;20756;-74
2023/02/07 05:12:27;;;;;;;75.97;35.25;;;-6.10;99.90;;;;;;2085504;28;20053;-74
2023/02/07 05:13:28;;;;;;;80.03;35.42;;;-6.10;99.90;;;;;;2087625;28;20189;-74
2023/02/07 05:14:28;;;;;;;82.40;36.25;;;-6.10;99.90;;;;;;2081610;28;20511;-73
2023/02/07 05:15:29;;;;;;;76.10;34.88;;;-6.10;99.90;;;;;;2080629;28;20666;-73
2023/02/07 05:16:30;;;;;;;74.65;34.85;;;-6.10;99.90;;;;;;2086897;28;20578;-74
2023/02/07 05:17:33;;;;;;;74.78;35.45;;;-6.20;99.90;;;;;;2088067;28;20036;-73
2023/02/07 05:18:34;;;;;;;79.68;35.72;;;-6.20;99.90;;;;;;2087339;28;20563;-73
2023/02/07 05:19:34;;;;;;;79.13;36.13;;;-6.20;99.90;;;;;;2087792;28;20044;-74
2023/02/07 05:20:35;;;;;;;75.38;35.22;;;-6.20;99.90;;;;;;2093520;28;20048;-74
2023/02/07 05:21:35;;;;;;;78.32;36.00;;;-6.20;99.90;;;;;;2084333;28;20035;-75
2023/02/07 05:22:36;;;;;;;76.30;36.42;;;-6.20;99.90;;;;;;2089191;28;20029;-74
2023/02/07 05:23:37;;;;;;;71.38;34.72;;;-6.20;99.90;;;;;;2093047;28;20104;-74
2023/02/07 05:24:37;;;;;;;69.63;33.95;;;-6.20;99.90;;;;;;2082513;28;20039;-74
2023/02/07 05:25:42;;;;;;;62.55;32.05;;;-6.20;99.90;;;;;;2087516;28;20111;-74
2023/02/07 05:26:43;;;;;;;66.30;33.40;;;-6.20;99.90;;;;;;2087181;28;20097;-75
2023/02/07 05:27:43;;;;;;;68.72;34.28;;;-6.20;99.90;;;;;;2087117;28;20511;-75
2023/02/07 05:28:44;;;;;;;65.40;32.30;;;-6.10;99.90;;;;;;2084361;28;20064;-75
2023/02/07 05:29:44;;;;;;;64.95;32.35;;;-6.10;99.90;;;;;;2081129;28;20029;-75